sensor_id;sensor_type;location;lat;lon;timestamp;P1;durP1;ratioP1;P2;durP2;ratioP2
9892;SDS011;4985;49.092;8.542;2022-10-16T00:01:20;0.83;;;0.83;;
9892;SDS011;4985;49.092;8.542;2022-10-16T00:03:48;2.50;;;1.07;;
9892;SDS011;4985;49.092;8.542;2022-10-16T00:06:15;1.10;;;1.00;;
9892;SDS011;4985;49.092;8.542;2022-10-16T00:08:43;1.10;;;1.00;;
9892;SDS011;4985;49.092;8.542;2022-10-16T00:11:12;1.33;;;0.93;;
9892;SDS011;4985;49.092;8.542;2022-10-16T00:13:40;4.13;;;1.90;;
9892;SDS011;4985;49.092;8.542;2022-10-16T00:16:09;4.83;;;3.20;;
9892;SDS011;4985;49.092;8.542;2022-10-16T00:18:37;11.73;;;6.97;;
9892;SDS011;4985;49.092;8.542;2022-10-16T00:21:04;9.43;;;5.17;;
9892;SDS011;4985;49.092;8.542;2022-10-16T00:23:33;9.13;;;3.75;;
9892;SDS011;4985;49.092;8.542;2022-10-16T00:26:01;7.03;;;2.63;;
9892;SDS011;4985;49.092;8.542;2022-10-16T00:28:31;13.60;;;4.83;;
9892;SDS011;4985;49.092;8.542;2022-10-16T00:30:58;2.20;;;1.50;;
9892;SDS011;4985;49.092;8.542;2022-10-16T00:33:25;5.03;;;1.40;;
9892;SDS011;4985;49.092;8.542;2022-10-16T00:35:51;2.23;;;1.00;;
9892;SDS011;4985;49.092;8.542;2022-10-16T00:38:18;1.10;;;1.00;;
9892;SDS011;4985;49.092;8.542;2022-10-16T00:40:44;0.80;;;0.80;;
9892;SDS011;4985;49.092;8.542;2022-10-16T00:43:12;1.20;;;1.00;;
9892;SDS011;4985;49.092;8.542;2022-10-16T00:45:41;7.50;;;1.00;;
9892;SDS011;4985;49.092;8.542;2022-10-16T00:48:10;1.10;;;1.10;;
9892;SDS011;4985;49.092;8.542;2022-10-16T00:50:39;0.98;;;0.88;;
9892;SDS011;4985;49.092;8.542;2022-10-16T00:53:08;3.23;;;0.97;;
9892;SDS011;4985;49.092;8.542;2022-10-16T00:55:37;0.82;;;0.80;;
9892;SDS011;4985;49.092;8.542;2022-10-16T00:58:03;1.90;;;0.90;;
9892;SDS011;4985;49.092;8.542;2022-10-16T01:00:30;1.50;;;0.93;;
9892;SDS011;4985;49.092;8.542;2022-10-16T01:02:58;1.10;;;0.98;;
9892;SDS011;4985;49.092;8.542;2022-10-16T01:05:27;1.07;;;0.97;;
9892;SDS011;4985;49.092;8.542;2022-10-16T01:08:01;1.10;;;1.00;;
9892;SDS011;4985;49.092;8.542;2022-10-16T01:10:35;1.30;;;0.90;;
9892;SDS011;4985;49.092;8.542;2022-10-16T01:13:06;0.90;;;0.90;;
9892;SDS011;4985;49.092;8.542;2022-10-16T01:15:36;0.80;;;0.80;;
9892;SDS011;4985;49.092;8.542;2022-10-16T01:18:08;2.47;;;0.90;;
9892;SDS011;4985;49.092;8.542;2022-10-16T01:20:41;0.90;;;0.90;;
9892;SDS011;4985;49.092;8.542;2022-10-16T01:23:19;2.93;;;0.90;;
9892;SDS011;4985;49.092;8.542;2022-10-16T01:26:00;1.30;;;0.70;;
9892;SDS011;4985;49.092;8.542;2022-10-16T01:28:47;1.10;;;0.93;;
9892;SDS011;4985;49.092;8.542;2022-10-16T01:31:19;1.02;;;0.98;;
9892;SDS011;4985;49.092;8.542;2022-10-16T01:33:51;0.93;;;0.90;;
9892;SDS011;4985;49.092;8.542;2022-10-16T01:36:27;0.70;;;0.70;;
9892;SDS011;4985;49.092;8.542;2022-10-16T01:38:57;1.47;;;1.00;;
9892;SDS011;4985;49.092;8.542;2022-10-16T01:41:28;1.07;;;0.97;;
9892;SDS011;4985;49.092;8.542;2022-10-16T01:44:01;2.73;;;1.00;;
9892;SDS011;4985;49.092;8.542;2022-10-16T01:46:30;3.47;;;1.12;;
9892;SDS011;4985;49.092;8.542;2022-10-16T01:48:57;1.30;;;1.00;;
9892;SDS011;4985;49.092;8.542;2022-10-16T01:51:26;1.23;;;0.87;;
9892;SDS011;4985;49.092;8.542;2022-10-16T01:53:55;1.13;;;1.00;;
9892;SDS011;4985;49.092;8.542;2022-10-16T01:56:26;1.37;;;1.03;;
9892;SDS011;4985;49.092;8.542;2022-10-16T01:58:55;0.90;;;0.90;;
9892;SDS011;4985;49.092;8.542;2022-10-16T02:01:28;3.43;;;0.80;;
9892;SDS011;4985;49.092;8.542;2022-10-16T02:03:57;0.90;;;0.90;;
9892;SDS011;4985;49.092;8.542;2022-10-16T02:06:28;0.90;;;0.90;;
9892;SDS011;4985;49.092;8.542;2022-10-16T02:08:55;4.18;;;1.27;;
9892;SDS011;4985;49.092;8.542;2022-10-16T02:11:21;0.70;;;0.70;;
9892;SDS011;4985;49.092;8.542;2022-10-16T02:13:50;1.67;;;0.80;;
9892;SDS011;4985;49.092;8.542;2022-10-16T02:16:21;1.43;;;0.83;;
9892;SDS011;4985;49.092;8.542;2022-10-16T02:18:58;0.90;;;0.90;;
9892;SDS011;4985;49.092;8.542;2022-10-16T02:21:25;1.83;;;0.80;;
9892;SDS011;4985;49.092;8.542;2022-10-16T02:23:55;1.00;;;0.90;;
9892;SDS011;4985;49.092;8.542;2022-10-16T02:26:28;0.90;;;0.90;;
9892;SDS011;4985;49.092;8.542;2022-10-16T02:29:00;0.90;;;0.90;;
9892;SDS011;4985;49.092;8.542;2022-10-16T02:31:32;0.77;;;0.77;;
9892;SDS011;4985;49.092;8.542;2022-10-16T02:34:03;1.27;;;0.90;;
9892;SDS011;4985;49.092;8.542;2022-10-16T02:36:32;0.80;;;0.80;;
9892;SDS011;4985;49.092;8.542;2022-10-16T02:39:00;1.90;;;1.13;;
9892;SDS011;4985;49.092;8.542;2022-10-16T02:41:30;1.17;;;0.80;;
9892;SDS011;4985;49.092;8.542;2022-10-16T02:43:57;2.83;;;1.00;;
9892;SDS011;4985;49.092;8.542;2022-10-16T02:46:23;2.07;;;1.07;;
9892;SDS011;4985;49.092;8.542;2022-10-16T02:48:51;1.93;;;0.77;;
9892;SDS011;4985;49.092;8.542;2022-10-16T02:51:18;2.83;;;1.30;;
9892;SDS011;4985;49.092;8.542;2022-10-16T02:53:44;2.20;;;0.90;;
9892;SDS011;4985;49.092;8.542;2022-10-16T02:56:11;0.77;;;0.77;;
9892;SDS011;4985;49.092;8.542;2022-10-16T02:58:37;1.20;;;0.90;;
9892;SDS011;4985;49.092;8.542;2022-10-16T03:01:04;1.80;;;0.90;;
9892;SDS011;4985;49.092;8.542;2022-10-16T03:03:31;1.10;;;1.00;;
9892;SDS011;4985;49.092;8.542;2022-10-16T03:05:59;1.10;;;1.00;;
9892;SDS011;4985;49.092;8.542;2022-10-16T03:08:25;1.00;;;0.83;;
9892;SDS011;4985;49.092;8.542;2022-10-16T03:10:52;3.53;;;0.90;;
9892;SDS011;4985;49.092;8.542;2022-10-16T03:13:18;3.63;;;1.20;;
9892;SDS011;4985;49.092;8.542;2022-10-16T03:15:46;1.33;;;1.07;;
9892;SDS011;4985;49.092;8.542;2022-10-16T03:18:13;1.20;;;1.00;;
9892;SDS011;4985;49.092;8.542;2022-10-16T03:20:39;1.30;;;0.90;;
9892;SDS011;4985;49.092;8.542;2022-10-16T03:23:07;1.27;;;1.10;;
9892;SDS011;4985;49.092;8.542;2022-10-16T03:25:34;1.20;;;0.90;;
9892;SDS011;4985;49.092;8.542;2022-10-16T03:28:01;1.30;;;0.90;;
9892;SDS011;4985;49.092;8.542;2022-10-16T03:30:28;0.90;;;0.90;;
9892;SDS011;4985;49.092;8.542;2022-10-16T03:32:54;1.02;;;1.02;;
9892;SDS011;4985;49.092;8.542;2022-10-16T03:35:21;5.30;;;1.23;;
9892;SDS011;4985;49.092;8.542;2022-10-16T03:37:48;1.53;;;0.90;;
9892;SDS011;4985;49.092;8.542;2022-10-16T03:40:17;1.17;;;1.03;;
9892;SDS011;4985;49.092;8.542;2022-10-16T03:42:43;2.07;;;1.10;;
9892;SDS011;4985;49.092;8.542;2022-10-16T03:45:10;4.97;;;1.02;;
9892;SDS011;4985;49.092;8.542;2022-10-16T03:47:37;3.60;;;1.10;;
9892;SDS011;4985;49.092;8.542;2022-10-16T03:50:04;4.50;;;1.20;;
9892;SDS011;4985;49.092;8.542;2022-10-16T03:52:31;3.17;;;0.90;;
9892;SDS011;4985;49.092;8.542;2022-10-16T03:54:58;0.93;;;0.90;;
9892;SDS011;4985;49.092;8.542;2022-10-16T03:57:26;1.20;;;1.03;;
9892;SDS011;4985;49.092;8.542;2022-10-16T03:59:52;1.70;;;1.00;;
9892;SDS011;4985;49.092;8.542;2022-10-16T04:02:19;1.23;;;0.90;;
9892;SDS011;4985;49.092;8.542;2022-10-16T04:04:45;1.20;;;1.10;;
9892;SDS011;4985;49.092;8.542;2022-10-16T04:07:12;1.93;;;0.90;;
9892;SDS011;4985;49.092;8.542;2022-10-16T04:09:38;1.93;;;1.00;;
9892;SDS011;4985;49.092;8.542;2022-10-16T04:12:05;0.80;;;0.80;;
9892;SDS011;4985;49.092;8.542;2022-10-16T04:14:33;2.93;;;1.00;;
9892;SDS011;4985;49.092;8.542;2022-10-16T04:17:00;2.72;;;1.00;;
9892;SDS011;4985;49.092;8.542;2022-10-16T04:19:26;3.07;;;1.07;;
9892;SDS011;4985;49.092;8.542;2022-10-16T04:21:53;3.90;;;1.03;;
9892;SDS011;4985;49.092;8.542;2022-10-16T04:24:19;1.30;;;1.20;;
9892;SDS011;4985;49.092;8.542;2022-10-16T04:26:46;1.50;;;0.90;;
9892;SDS011;4985;49.092;8.542;2022-10-16T04:29:12;2.20;;;1.10;;
9892;SDS011;4985;49.092;8.542;2022-10-16T04:31:40;1.33;;;0.83;;
9892;SDS011;4985;49.092;8.542;2022-10-16T04:34:07;0.93;;;0.90;;
9892;SDS011;4985;49.092;8.542;2022-10-16T04:36:33;1.10;;;0.90;;
9892;SDS011;4985;49.092;8.542;2022-10-16T04:39:00;3.37;;;1.83;;
9892;SDS011;4985;49.092;8.542;2022-10-16T04:41:26;2.20;;;0.90;;
9892;SDS011;4985;49.092;8.542;2022-10-16T04:43:53;1.87;;;0.90;;
9892;SDS011;4985;49.092;8.542;2022-10-16T04:46:19;0.97;;;0.90;;
9892;SDS011;4985;49.092;8.542;2022-10-16T04:48:47;1.20;;;1.00;;
9892;SDS011;4985;49.092;8.542;2022-10-16T04:51:14;2.80;;;1.20;;
9892;SDS011;4985;49.092;8.542;2022-10-16T04:53:41;1.40;;;0.90;;
9892;SDS011;4985;49.092;8.542;2022-10-16T04:56:07;1.00;;;0.90;;
9892;SDS011;4985;49.092;8.542;2022-10-16T04:58:34;9.43;;;0.83;;
9892;SDS011;4985;49.092;8.542;2022-10-16T05:01:00;3.13;;;1.10;;
9892;SDS011;4985;49.092;8.542;2022-10-16T05:03:27;3.30;;;1.03;;
9892;SDS011;4985;49.092;8.542;2022-10-16T05:05:55;2.90;;;0.90;;
9892;SDS011;4985;49.092;8.542;2022-10-16T05:08:21;1.40;;;0.93;;
9892;SDS011;4985;49.092;8.542;2022-10-16T05:10:48;1.70;;;1.00;;
9892;SDS011;4985;49.092;8.542;2022-10-16T05:13:14;2.27;;;0.80;;
9892;SDS011;4985;49.092;8.542;2022-10-16T05:15:41;1.23;;;1.10;;
9892;SDS011;4985;49.092;8.542;2022-10-16T05:18:08;2.10;;;1.63;;
9892;SDS011;4985;49.092;8.542;2022-10-16T05:20:34;1.57;;;0.97;;
9892;SDS011;4985;49.092;8.542;2022-10-16T05:23:02;0.90;;;0.90;;
9892;SDS011;4985;49.092;8.542;2022-10-16T05:25:29;0.90;;;0.90;;
9892;SDS011;4985;49.092;8.542;2022-10-16T05:27:55;3.30;;;1.10;;
9892;SDS011;4985;49.092;8.542;2022-10-16T05:30:22;3.67;;;1.47;;
9892;SDS011;4985;49.092;8.542;2022-10-16T05:32:49;1.10;;;1.00;;
9892;SDS011;4985;49.092;8.542;2022-10-16T05:35:17;3.10;;;1.30;;
9892;SDS011;4985;49.092;8.542;2022-10-16T05:37:44;1.27;;;1.00;;
9892;SDS011;4985;49.092;8.542;2022-10-16T05:40:12;3.80;;;1.17;;
9892;SDS011;4985;49.092;8.542;2022-10-16T05:42:39;2.20;;;1.10;;
9892;SDS011;4985;49.092;8.542;2022-10-16T05:45:06;2.10;;;1.17;;
9892;SDS011;4985;49.092;8.542;2022-10-16T05:47:35;3.83;;;1.13;;
9892;SDS011;4985;49.092;8.542;2022-10-16T05:50:02;1.20;;;1.10;;
9892;SDS011;4985;49.092;8.542;2022-10-16T05:52:30;3.67;;;1.30;;
9892;SDS011;4985;49.092;8.542;2022-10-16T05:54:56;0.93;;;0.93;;
9892;SDS011;4985;49.092;8.542;2022-10-16T05:57:24;2.57;;;1.00;;
9892;SDS011;4985;49.092;8.542;2022-10-16T05:59:51;1.93;;;1.40;;
9892;SDS011;4985;49.092;8.542;2022-10-16T06:02:17;2.27;;;1.50;;
9892;SDS011;4985;49.092;8.542;2022-10-16T06:04:44;4.50;;;1.40;;
9892;SDS011;4985;49.092;8.542;2022-10-16T06:07:10;4.23;;;1.50;;
9892;SDS011;4985;49.092;8.542;2022-10-16T06:09:37;3.40;;;2.50;;
9892;SDS011;4985;49.092;8.542;2022-10-16T06:12:03;4.83;;;2.17;;
9892;SDS011;4985;49.092;8.542;2022-10-16T06:14:31;4.07;;;1.40;;
9892;SDS011;4985;49.092;8.542;2022-10-16T06:16:58;3.53;;;1.40;;
9892;SDS011;4985;49.092;8.542;2022-10-16T06:19:24;3.83;;;1.53;;
9892;SDS011;4985;49.092;8.542;2022-10-16T06:21:51;3.15;;;2.40;;
9892;SDS011;4985;49.092;8.542;2022-10-16T06:24:18;4.47;;;2.30;;
9892;SDS011;4985;49.092;8.542;2022-10-16T06:26:44;2.63;;;1.93;;
9892;SDS011;4985;49.092;8.542;2022-10-16T06:29:11;2.20;;;1.53;;
9892;SDS011;4985;49.092;8.542;2022-10-16T06:31:39;2.35;;;1.55;;
9892;SDS011;4985;49.092;8.542;2022-10-16T06:34:05;4.60;;;1.35;;
9892;SDS011;4985;49.092;8.542;2022-10-16T06:36:34;2.10;;;1.30;;
9892;SDS011;4985;49.092;8.542;2022-10-16T06:39:01;2.43;;;1.37;;
9892;SDS011;4985;49.092;8.542;2022-10-16T06:41:27;2.33;;;2.13;;
9892;SDS011;4985;49.092;8.542;2022-10-16T06:43:54;2.90;;;2.20;;
9892;SDS011;4985;49.092;8.542;2022-10-16T06:46:21;2.53;;;1.90;;
9892;SDS011;4985;49.092;8.542;2022-10-16T06:48:51;2.53;;;1.67;;
9892;SDS011;4985;49.092;8.542;2022-10-16T06:51:19;2.43;;;1.83;;
9892;SDS011;4985;49.092;8.542;2022-10-16T06:53:47;1.70;;;1.57;;
9892;SDS011;4985;49.092;8.542;2022-10-16T06:56:16;2.60;;;1.43;;
9892;SDS011;4985;49.092;8.542;2022-10-16T06:58:43;1.50;;;1.27;;
9892;SDS011;4985;49.092;8.542;2022-10-16T07:01:11;1.27;;;1.00;;
9892;SDS011;4985;49.092;8.542;2022-10-16T07:03:39;5.10;;;1.17;;
9892;SDS011;4985;49.092;8.542;2022-10-16T07:06:08;1.47;;;1.30;;
9892;SDS011;4985;49.092;8.542;2022-10-16T07:08:38;2.77;;;1.63;;
9892;SDS011;4985;49.092;8.542;2022-10-16T07:11:06;2.97;;;1.20;;
9892;SDS011;4985;49.092;8.542;2022-10-16T07:13:34;2.80;;;1.20;;
9892;SDS011;4985;49.092;8.542;2022-10-16T07:16:04;1.10;;;1.00;;
9892;SDS011;4985;49.092;8.542;2022-10-16T07:18:31;1.67;;;1.10;;
9892;SDS011;4985;49.092;8.542;2022-10-16T07:21:02;1.63;;;1.13;;
9892;SDS011;4985;49.092;8.542;2022-10-16T07:23:31;1.73;;;1.10;;
9892;SDS011;4985;49.092;8.542;2022-10-16T07:25:57;2.10;;;1.00;;
9892;SDS011;4985;49.092;8.542;2022-10-16T07:28:24;1.30;;;1.13;;
9892;SDS011;4985;49.092;8.542;2022-10-16T07:30:50;1.20;;;1.10;;
9892;SDS011;4985;49.092;8.542;2022-10-16T07:33:17;3.10;;;1.40;;
9892;SDS011;4985;49.092;8.542;2022-10-16T07:35:47;1.77;;;0.90;;
9892;SDS011;4985;49.092;8.542;2022-10-16T07:38:15;1.40;;;1.10;;
9892;SDS011;4985;49.092;8.542;2022-10-16T07:40:42;1.63;;;1.27;;
9892;SDS011;4985;49.092;8.542;2022-10-16T07:43:09;3.17;;;1.27;;
9892;SDS011;4985;49.092;8.542;2022-10-16T07:45:36;1.20;;;1.10;;
9892;SDS011;4985;49.092;8.542;2022-10-16T07:48:03;1.50;;;1.27;;
9892;SDS011;4985;49.092;8.542;2022-10-16T07:50:29;1.30;;;1.17;;
9892;SDS011;4985;49.092;8.542;2022-10-16T07:52:56;3.90;;;2.20;;
9892;SDS011;4985;49.092;8.542;2022-10-16T07:55:22;2.67;;;1.53;;
9892;SDS011;4985;49.092;8.542;2022-10-16T07:57:50;2.57;;;1.07;;
9892;SDS011;4985;49.092;8.542;2022-10-16T08:00:17;2.87;;;1.20;;
9892;SDS011;4985;49.092;8.542;2022-10-16T08:02:43;2.13;;;1.30;;
9892;SDS011;4985;49.092;8.542;2022-10-16T08:05:10;1.90;;;1.40;;
9892;SDS011;4985;49.092;8.542;2022-10-16T08:07:36;1.83;;;1.10;;
9892;SDS011;4985;49.092;8.542;2022-10-16T08:10:03;4.83;;;1.80;;
9892;SDS011;4985;49.092;8.542;2022-10-16T08:12:30;2.43;;;1.20;;
9892;SDS011;4985;49.092;8.542;2022-10-16T08:14:58;1.57;;;1.20;;
9892;SDS011;4985;49.092;8.542;2022-10-16T08:17:25;1.20;;;1.10;;
9892;SDS011;4985;49.092;8.542;2022-10-16T08:19:51;3.37;;;1.27;;
9892;SDS011;4985;49.092;8.542;2022-10-16T08:22:18;1.37;;;1.27;;
9892;SDS011;4985;49.092;8.542;2022-10-16T08:24:44;2.03;;;1.10;;
9892;SDS011;4985;49.092;8.542;2022-10-16T08:27:11;3.23;;;1.23;;
9892;SDS011;4985;49.092;8.542;2022-10-16T08:29:38;1.50;;;1.10;;
9892;SDS011;4985;49.092;8.542;2022-10-16T08:32:06;1.00;;;1.00;;
9892;SDS011;4985;49.092;8.542;2022-10-16T08:34:32;2.20;;;1.13;;
9892;SDS011;4985;49.092;8.542;2022-10-16T08:36:59;3.07;;;1.37;;
9892;SDS011;4985;49.092;8.542;2022-10-16T08:39:26;3.30;;;1.30;;
9892;SDS011;4985;49.092;8.542;2022-10-16T08:41:59;1.43;;;1.20;;
9892;SDS011;4985;49.092;8.542;2022-10-16T08:44:41;1.70;;;1.17;;
9892;SDS011;4985;49.092;8.542;2022-10-16T08:47:39;2.03;;;1.57;;
9892;SDS011;4985;49.092;8.542;2022-10-16T08:50:12;3.57;;;1.30;;
9892;SDS011;4985;49.092;8.542;2022-10-16T08:52:41;1.40;;;1.20;;
9892;SDS011;4985;49.092;8.542;2022-10-16T08:55:14;1.90;;;1.23;;
9892;SDS011;4985;49.092;8.542;2022-10-16T08:57:52;2.70;;;1.07;;
9892;SDS011;4985;49.092;8.542;2022-10-16T09:00:19;1.70;;;1.00;;
9892;SDS011;4985;49.092;8.542;2022-10-16T09:02:50;3.13;;;1.27;;
9892;SDS011;4985;49.092;8.542;2022-10-16T09:05:28;3.67;;;1.13;;
9892;SDS011;4985;49.092;8.542;2022-10-16T09:08:11;1.30;;;1.20;;
9892;SDS011;4985;49.092;8.542;2022-10-16T09:10:46;1.60;;;1.20;;
9892;SDS011;4985;49.092;8.542;2022-10-16T09:13:21;2.63;;;1.03;;
9892;SDS011;4985;49.092;8.542;2022-10-16T09:15:54;1.30;;;1.10;;
9892;SDS011;4985;49.092;8.542;2022-10-16T09:18:29;2.07;;;1.20;;
9892;SDS011;4985;49.092;8.542;2022-10-16T09:21:05;10.67;;;1.70;;
9892;SDS011;4985;49.092;8.542;2022-10-16T09:23:36;2.67;;;1.40;;
9892;SDS011;4985;49.092;8.542;2022-10-16T09:26:05;4.43;;;1.50;;
9892;SDS011;4985;49.092;8.542;2022-10-16T09:28:35;1.50;;;1.27;;
9892;SDS011;4985;49.092;8.542;2022-10-16T09:31:01;1.97;;;1.30;;
9892;SDS011;4985;49.092;8.542;2022-10-16T09:33:30;2.33;;;1.40;;
9892;SDS011;4985;49.092;8.542;2022-10-16T09:36:01;1.47;;;1.13;;
9892;SDS011;4985;49.092;8.542;2022-10-16T09:38:32;3.10;;;1.40;;
9892;SDS011;4985;49.092;8.542;2022-10-16T09:41:01;2.03;;;1.50;;
9892;SDS011;4985;49.092;8.542;2022-10-16T09:43:31;1.40;;;1.30;;
9892;SDS011;4985;49.092;8.542;2022-10-16T09:46:02;1.50;;;1.20;;
9892;SDS011;4985;49.092;8.542;2022-10-16T09:48:33;2.53;;;1.60;;
9892;SDS011;4985;49.092;8.542;2022-10-16T09:51:03;2.70;;;1.30;;
9892;SDS011;4985;49.092;8.542;2022-10-16T09:53:38;1.47;;;1.17;;
9892;SDS011;4985;49.092;8.542;2022-10-16T09:56:09;1.50;;;1.20;;
9892;SDS011;4985;49.092;8.542;2022-10-16T09:58:41;1.37;;;1.27;;
9892;SDS011;4985;49.092;8.542;2022-10-16T10:01:10;1.47;;;1.23;;
9892;SDS011;4985;49.092;8.542;2022-10-16T10:03:41;1.60;;;1.47;;
9892;SDS011;4985;49.092;8.542;2022-10-16T10:06:17;1.43;;;1.33;;
9892;SDS011;4985;49.092;8.542;2022-10-16T10:08:55;1.50;;;1.40;;
9892;SDS011;4985;49.092;8.542;2022-10-16T10:11:42;3.73;;;1.30;;
9892;SDS011;4985;49.092;8.542;2022-10-16T10:14:22;2.60;;;1.40;;
9892;SDS011;4985;49.092;8.542;2022-10-16T10:16:51;1.70;;;1.50;;
9892;SDS011;4985;49.092;8.542;2022-10-16T10:19:20;3.33;;;1.70;;
9892;SDS011;4985;49.092;8.542;2022-10-16T10:21:49;1.33;;;1.17;;
9892;SDS011;4985;49.092;8.542;2022-10-16T10:24:17;1.50;;;1.40;;
9892;SDS011;4985;49.092;8.542;2022-10-16T10:26:47;2.77;;;1.67;;
9892;SDS011;4985;49.092;8.542;2022-10-16T10:32:12;5.60;;;1.50;;
9892;SDS011;4985;49.092;8.542;2022-10-16T10:34:51;3.17;;;1.37;;
9892;SDS011;4985;49.092;8.542;2022-10-16T10:37:30;1.90;;;1.23;;
9892;SDS011;4985;49.092;8.542;2022-10-16T10:40:15;2.40;;;1.30;;
9892;SDS011;4985;49.092;8.542;2022-10-16T10:42:51;3.43;;;1.20;;
9892;SDS011;4985;49.092;8.542;2022-10-16T10:45:26;2.70;;;1.20;;
9892;SDS011;4985;49.092;8.542;2022-10-16T10:48:06;1.40;;;1.30;;
9892;SDS011;4985;49.092;8.542;2022-10-16T10:50:47;1.60;;;1.40;;
9892;SDS011;4985;49.092;8.542;2022-10-16T10:53:31;4.43;;;1.43;;
9892;SDS011;4985;49.092;8.542;2022-10-16T10:56:08;1.63;;;1.33;;
9892;SDS011;4985;49.092;8.542;2022-10-16T10:58:55;1.50;;;1.40;;
9892;SDS011;4985;49.092;8.542;2022-10-16T11:01:31;2.33;;;1.57;;
9892;SDS011;4985;49.092;8.542;2022-10-16T11:07:02;2.50;;;1.60;;
9892;SDS011;4985;49.092;8.542;2022-10-16T11:09:31;2.50;;;1.40;;
9892;SDS011;4985;49.092;8.542;2022-10-16T11:12:04;3.27;;;1.33;;
9892;SDS011;4985;49.092;8.542;2022-10-16T11:14:36;3.00;;;1.33;;
9892;SDS011;4985;49.092;8.542;2022-10-16T11:17:10;1.60;;;1.20;;
9892;SDS011;4985;49.092;8.542;2022-10-16T11:19:41;3.07;;;1.40;;
9892;SDS011;4985;49.092;8.542;2022-10-16T11:22:15;5.77;;;1.30;;
9892;SDS011;4985;49.092;8.542;2022-10-16T11:24:46;1.13;;;1.03;;
9892;SDS011;4985;49.092;8.542;2022-10-16T11:27:17;3.07;;;1.40;;
9892;SDS011;4985;49.092;8.542;2022-10-16T11:29:49;3.30;;;1.10;;
9892;SDS011;4985;49.092;8.542;2022-10-16T11:32:22;2.00;;;1.30;;
9892;SDS011;4985;49.092;8.542;2022-10-16T11:34:57;1.80;;;1.20;;
9892;SDS011;4985;49.092;8.542;2022-10-16T11:37:30;2.17;;;1.27;;
9892;SDS011;4985;49.092;8.542;2022-10-16T11:40:03;5.37;;;1.37;;
9892;SDS011;4985;49.092;8.542;2022-10-16T11:42:43;2.90;;;1.73;;
9892;SDS011;4985;49.092;8.542;2022-10-16T11:45:17;4.30;;;1.20;;
9892;SDS011;4985;49.092;8.542;2022-10-16T11:47:54;2.50;;;1.40;;
9892;SDS011;4985;49.092;8.542;2022-10-16T11:50:29;2.83;;;1.40;;
9892;SDS011;4985;49.092;8.542;2022-10-16T11:53:03;1.73;;;1.40;;
9892;SDS011;4985;49.092;8.542;2022-10-16T11:55:36;1.53;;;1.30;;
9892;SDS011;4985;49.092;8.542;2022-10-16T11:58:06;2.77;;;1.53;;
9892;SDS011;4985;49.092;8.542;2022-10-16T12:00:37;2.00;;;1.43;;
9892;SDS011;4985;49.092;8.542;2022-10-16T12:03:11;4.47;;;1.40;;
9892;SDS011;4985;49.092;8.542;2022-10-16T12:05:50;3.37;;;1.50;;
9892;SDS011;4985;49.092;8.542;2022-10-16T12:08:26;1.50;;;1.30;;
9892;SDS011;4985;49.092;8.542;2022-10-16T12:10:53;1.77;;;1.30;;
9892;SDS011;4985;49.092;8.542;2022-10-16T12:13:33;1.70;;;1.60;;
9892;SDS011;4985;49.092;8.542;2022-10-16T12:16:19;1.40;;;1.30;;
9892;SDS011;4985;49.092;8.542;2022-10-16T12:18:47;2.97;;;1.73;;
9892;SDS011;4985;49.092;8.542;2022-10-16T12:21:15;3.25;;;1.20;;
9892;SDS011;4985;49.092;8.542;2022-10-16T12:23:49;3.00;;;1.60;;
9892;SDS011;4985;49.092;8.542;2022-10-16T12:26:24;5.30;;;1.60;;
9892;SDS011;4985;49.092;8.542;2022-10-16T12:28:51;2.78;;;1.37;;
9892;SDS011;4985;49.092;8.542;2022-10-16T12:31:18;5.27;;;1.23;;
9892;SDS011;4985;49.092;8.542;2022-10-16T12:33:52;2.07;;;1.20;;
9892;SDS011;4985;49.092;8.542;2022-10-16T12:36:27;4.47;;;1.50;;
9892;SDS011;4985;49.092;8.542;2022-10-16T12:38:57;4.43;;;1.30;;
9892;SDS011;4985;49.092;8.542;2022-10-16T12:41:25;4.18;;;1.25;;
9892;SDS011;4985;49.092;8.542;2022-10-16T12:43:53;1.83;;;1.27;;
9892;SDS011;4985;49.092;8.542;2022-10-16T12:46:21;3.40;;;1.70;;
9892;SDS011;4985;49.092;8.542;2022-10-16T12:48:52;2.17;;;1.40;;
9892;SDS011;4985;49.092;8.542;2022-10-16T12:51:23;1.87;;;1.40;;
9892;SDS011;4985;49.092;8.542;2022-10-16T12:54:02;1.93;;;1.57;;
9892;SDS011;4985;49.092;8.542;2022-10-16T12:56:36;1.53;;;1.27;;
9892;SDS011;4985;49.092;8.542;2022-10-16T12:59:14;1.70;;;1.60;;
9892;SDS011;4985;49.092;8.542;2022-10-16T13:01:52;9.43;;;1.87;;
9892;SDS011;4985;49.092;8.542;2022-10-16T13:07:35;2.30;;;1.40;;
9892;SDS011;4985;49.092;8.542;2022-10-16T13:10:17;1.70;;;1.37;;
9892;SDS011;4985;49.092;8.542;2022-10-16T13:12:58;3.20;;;1.30;;
9892;SDS011;4985;49.092;8.542;2022-10-16T13:15:40;2.63;;;1.37;;
9892;SDS011;4985;49.092;8.542;2022-10-16T13:18:19;4.30;;;1.50;;
9892;SDS011;4985;49.092;8.542;2022-10-16T13:20:56;3.77;;;1.47;;
9892;SDS011;4985;49.092;8.542;2022-10-16T13:23:38;3.65;;;1.50;;
9892;SDS011;4985;49.092;8.542;2022-10-16T13:26:19;2.25;;;1.35;;
9892;SDS011;4985;49.092;8.542;2022-10-16T13:28:53;5.57;;;1.40;;
9892;SDS011;4985;49.092;8.542;2022-10-16T13:31:20;3.42;;;1.20;;
9892;SDS011;4985;49.092;8.542;2022-10-16T13:33:49;2.87;;;1.50;;
9892;SDS011;4985;49.092;8.542;2022-10-16T13:36:20;1.40;;;1.30;;
9892;SDS011;4985;49.092;8.542;2022-10-16T13:38:48;1.80;;;1.60;;
9892;SDS011;4985;49.092;8.542;2022-10-16T13:41:25;1.75;;;1.40;;
9892;SDS011;4985;49.092;8.542;2022-10-16T13:43:52;2.37;;;1.57;;
9892;SDS011;4985;49.092;8.542;2022-10-16T13:46:21;2.70;;;1.23;;
9892;SDS011;4985;49.092;8.542;2022-10-16T13:48:56;2.75;;;1.50;;
9892;SDS011;4985;49.092;8.542;2022-10-16T13:51:23;2.00;;;1.40;;
9892;SDS011;4985;49.092;8.542;2022-10-16T13:53:51;1.80;;;1.47;;
9892;SDS011;4985;49.092;8.542;2022-10-16T13:56:18;2.53;;;1.60;;
9892;SDS011;4985;49.092;8.542;2022-10-16T13:58:59;1.40;;;1.30;;
9892;SDS011;4985;49.092;8.542;2022-10-16T14:01:27;2.15;;;1.42;;
9892;SDS011;4985;49.092;8.542;2022-10-16T14:03:59;2.33;;;1.67;;
9892;SDS011;4985;49.092;8.542;2022-10-16T14:06:28;2.80;;;1.45;;
9892;SDS011;4985;49.092;8.542;2022-10-16T14:08:56;1.95;;;1.62;;
9892;SDS011;4985;49.092;8.542;2022-10-16T14:11:27;2.53;;;1.50;;
9892;SDS011;4985;49.092;8.542;2022-10-16T14:13:54;3.40;;;1.80;;
9892;SDS011;4985;49.092;8.542;2022-10-16T14:16:23;2.47;;;1.70;;
9892;SDS011;4985;49.092;8.542;2022-10-16T14:18:55;2.65;;;1.65;;
9892;SDS011;4985;49.092;8.542;2022-10-16T14:21:24;3.78;;;1.95;;
9892;SDS011;4985;49.092;8.542;2022-10-16T14:23:51;3.25;;;1.98;;
9892;SDS011;4985;49.092;8.542;2022-10-16T14:26:19;2.97;;;1.60;;
9892;SDS011;4985;49.092;8.542;2022-10-16T14:28:48;5.10;;;1.87;;
9892;SDS011;4985;49.092;8.542;2022-10-16T14:31:29;2.47;;;1.70;;
9892;SDS011;4985;49.092;8.542;2022-10-16T14:33:57;4.30;;;1.73;;
9892;SDS011;4985;49.092;8.542;2022-10-16T14:36:24;5.65;;;1.70;;
9892;SDS011;4985;49.092;8.542;2022-10-16T14:38:59;2.78;;;1.40;;
9892;SDS011;4985;49.092;8.542;2022-10-16T14:41:28;2.83;;;1.70;;
9892;SDS011;4985;49.092;8.542;2022-10-16T14:43:56;8.17;;;1.93;;
9892;SDS011;4985;49.092;8.542;2022-10-16T14:46:30;4.10;;;1.62;;
9892;SDS011;4985;49.092;8.542;2022-10-16T14:49:02;2.70;;;1.60;;
9892;SDS011;4985;49.092;8.542;2022-10-16T14:51:39;4.83;;;1.80;;
9892;SDS011;4985;49.092;8.542;2022-10-16T14:54:10;3.00;;;1.80;;
9892;SDS011;4985;49.092;8.542;2022-10-16T14:56:41;2.20;;;1.67;;
9892;SDS011;4985;49.092;8.542;2022-10-16T14:59:13;5.40;;;1.50;;
9892;SDS011;4985;49.092;8.542;2022-10-16T15:01:43;2.37;;;1.70;;
9892;SDS011;4985;49.092;8.542;2022-10-16T15:04:10;5.20;;;1.65;;
9892;SDS011;4985;49.092;8.542;2022-10-16T15:06:38;3.47;;;1.75;;
9892;SDS011;4985;49.092;8.542;2022-10-16T15:09:05;1.58;;;1.33;;
9892;SDS011;4985;49.092;8.542;2022-10-16T15:11:32;2.00;;;1.50;;
9892;SDS011;4985;49.092;8.542;2022-10-16T15:13:59;4.53;;;1.65;;
9892;SDS011;4985;49.092;8.542;2022-10-16T15:16:25;3.47;;;1.70;;
9892;SDS011;4985;49.092;8.542;2022-10-16T15:18:53;6.32;;;1.55;;
9892;SDS011;4985;49.092;8.542;2022-10-16T15:21:27;2.90;;;1.75;;
9892;SDS011;4985;49.092;8.542;2022-10-16T15:23:56;2.10;;;1.60;;
9892;SDS011;4985;49.092;8.542;2022-10-16T15:26:23;1.95;;;1.52;;
9892;SDS011;4985;49.092;8.542;2022-10-16T15:28:50;2.97;;;1.80;;
9892;SDS011;4985;49.092;8.542;2022-10-16T15:31:17;3.62;;;1.62;;
9892;SDS011;4985;49.092;8.542;2022-10-16T15:33:44;1.80;;;1.60;;
9892;SDS011;4985;49.092;8.542;2022-10-16T15:36:19;4.10;;;1.65;;
9892;SDS011;4985;49.092;8.542;2022-10-16T15:38:51;2.20;;;1.73;;
9892;SDS011;4985;49.092;8.542;2022-10-16T15:41:18;2.77;;;1.80;;